Time;durP1;ratioP1;P1;durP2;ratioP2;P2;SDS_P1;SDS_P2;PMS_P1;PMS_P2;Temp;Humidity;BMP_temperature;BMP_pressure;BME280_temperature;BME280_humidity;BME280_pressure;Samples;Min_cycle;Max_cycle;Signal;HPM_P1;HPM_P2
2023/02/13 00:01:53;;;;;;;;;;;17.50;61.00;;;;;;5038793;28;801;-70
2023/02/13 00:04:18;;;;;;;;;;;17.50;61.00;;;;;;5038653;28;1309;-70
2023/02/13 00:06:46;;;;;;;;;;;17.50;61.00;;;;;;5045577;28;1258;-71
2023/02/13 00:09:12;;;;;;;;;;;17.50;61.00;;;;;;5043292;28;879;-70
2023/02/13 00:11:37;;;;;;;;;;;17.50;61.00;;;;;;5074558;28;1977;-71
2023/02/13 00:14:03;;;;;;;;;;;17.50;61.10;;;;;;5040736;28;875;-70
2023/02/13 00:16:28;;;;;;;;;;;17.50;61.00;;;;;;5040553;28;923;-71
2023/02/13 00:18:54;;;;;;;;;;;17.50;61.00;;;;;;5042419;28;1136;-71
2023/02/13 00:21:19;;;;;;;;;;;17.50;61.00;;;;;;5040820;28;1368;-70
2023/02/13 00:23:45;;;;;;;;;;;17.50;61.10;;;;;;5036717;28;943;-70
2023/02/13 00:26:11;;;;;;;;;;;17.50;61.00;;;;;;5041126;28;820;-70
2023/02/13 00:28:36;;;;;;;;;;;17.50;61.10;;;;;;5069324;28;883;-70
2023/02/13 00:31:03;;;;;;;;;;;17.50;61.10;;;;;;5069497;28;1910;-70
2023/02/13 00:33:28;;;;;;;;;;;17.50;61.10;;;;;;5040678;28;892;-71
2023/02/13 00:36:01;;;;;;;;;;;17.50;61.10;;;;;;5037994;28;1229;-69
2023/02/13 00:38:28;;;;;;;;;;;17.50;61.10;;;;;;5041362;28;879;-70
2023/02/13 00:40:53;;;;;;;;;;;17.50;61.10;;;;;;5040273;28;1243;-70
2023/02/13 00:43:19;;;;;;;;;;;17.50;61.10;;;;;;5035786;28;845;-71
2023/02/13 00:45:44;;;;;;;;;;;17.40;61.10;;;;;;5040586;28;1299;-70
2023/02/13 00:48:10;;;;;;;;;;;17.50;61.20;;;;;;5039714;28;813;-70
2023/02/13 00:50:35;;;;;;;;;;;17.50;61.20;;;;;;5035678;28;1919;-71
2023/02/13 00:53:00;;;;;;;;;;;17.50;61.20;;;;;;5040865;28;1259;-70
2023/02/13 00:55:26;;;;;;;;;;;17.50;61.20;;;;;;5037508;28;822;-71
2023/02/13 00:57:51;;;;;;;;;;;17.50;61.20;;;;;;5044160;28;1180;-71
2023/02/13 01:00:17;;;;;;;;;;;17.40;61.20;;;;;;5039020;28;1358;-71
2023/02/13 01:02:42;;;;;;;;;;;17.40;61.10;;;;;;5041153;28;1062;-70
2023/02/13 01:05:08;;;;;;;;;;;17.40;61.20;;;;;;5040862;28;941;-70
2023/02/13 01:07:33;;;;;;;;;;;17.40;61.20;;;;;;5039931;28;924;-70
2023/02/13 01:09:59;;;;;;;;;;;17.40;61.20;;;;;;5039538;28;1299;-70
2023/02/13 01:12:24;;;;;;;;;;;17.40;61.20;;;;;;5040660;28;1911;-70
2023/02/13 01:14:51;;;;;;;;;;;17.40;61.20;;;;;;5036498;28;950;-71
2023/02/13 01:17:16;;;;;;;;;;;17.40;61.20;;;;;;5037133;28;855;-71
2023/02/13 01:19:42;;;;;;;;;;;17.40;61.20;;;;;;5042566;28;1365;-71
2023/02/13 01:22:07;;;;;;;;;;;17.40;61.20;;;;;;5039566;28;859;-71
2023/02/13 01:24:33;;;;;;;;;;;17.40;61.20;;;;;;5039303;28;902;-71
2023/02/13 01:27:01;;;;;;;;;;;17.40;61.20;;;;;;5040410;28;1553;-71
2023/02/13 01:29:26;;;;;;;;;;;17.40;61.20;;;;;;5038153;28;1277;-70
2023/02/13 01:31:52;;;;;;;;;;;17.40;61.30;;;;;;5041576;28;1957;-71
2023/02/13 01:34:17;;;;;;;;;;;17.40;61.30;;;;;;5039623;28;1078;-70
2023/02/13 01:36:43;;;;;;;;;;;17.40;61.30;;;;;;5036594;28;813;-70
2023/02/13 01:39:09;;;;;;;;;;;17.40;61.30;;;;;;5040110;28;942;-70
2023/02/13 01:41:34;;;;;;;;;;;17.40;61.40;;;;;;5069583;28;1279;-69
2023/02/13 01:44:00;;;;;;;;;;;17.40;61.30;;;;;;5038927;28;1046;-70
2023/02/13 01:46:28;;;;;;;;;;;17.40;61.40;;;;;;5038025;28;820;-70
2023/02/13 01:48:55;;;;;;;;;;;17.40;61.30;;;;;;5070781;28;988;-70
2023/02/13 01:51:25;;;;;;;;;;;17.30;61.30;;;;;;5068053;28;1926;-71
2023/02/13 01:53:55;;;;;;;;;;;17.30;61.30;;;;;;5038944;28;1250;-70
2023/02/13 01:56:26;;;;;;;;;;;17.40;61.40;;;;;;5071192;28;1328;-71
2023/02/13 01:58:53;;;;;;;;;;;17.40;61.40;;;;;;5037734;28;1038;-71
2023/02/13 02:01:18;;;;;;;;;;;17.30;61.30;;;;;;5072074;28;1280;-71
2023/02/13 02:03:46;;;;;;;;;;;17.40;61.40;;;;;;5070191;28;1372;-71
2023/02/13 02:06:15;;;;;;;;;;;17.40;61.40;;;;;;5070218;28;985;-70
2023/02/13 02:08:41;;;;;;;;;;;17.30;61.40;;;;;;5070514;28;991;-70
2023/02/13 02:11:10;;;;;;;;;;;17.40;61.40;;;;;;5038342;28;1965;-71
2023/02/13 02:13:36;;;;;;;;;;;17.40;62.20;;;;;;5071313;28;1022;-71
2023/02/13 02:16:01;;;;;;;;;;;17.40;61.40;;;;;;5071146;28;1276;-71
2023/02/13 02:18:27;;;;;;;;;;;17.40;61.40;;;;;;5068625;28;895;-71
2023/02/13 02:20:55;;;;;;;;;;;17.40;61.50;;;;;;5038380;28;1257;-72
2023/02/13 02:23:39;;;;;;;;;;;17.40;61.50;;;;;;5034935;28;959;-71
2023/02/13 02:26:34;;;;;;;;;;;17.40;61.50;;;;;;5037772;28;843;-72
2023/02/13 02:29:18;;;;;;;;;;;17.30;61.40;;;;;;5037381;28;1388;-71
2023/02/13 02:31:46;;;;;;;;;;;17.30;61.40;;;;;;5035959;28;1910;-70
2023/02/13 02:34:11;;;;;;;;;;;17.40;61.50;;;;;;5038247;28;874;-70
2023/02/13 02:36:40;;;;;;;;;;;17.30;61.40;;;;;;5037972;28;1510;-71
2023/02/13 02:39:11;;;;;;;;;;;17.30;61.40;;;;;;5036633;28;880;-70
2023/02/13 02:42:03;;;;;;;;;;;17.30;61.50;;;;;;5069754;28;1207;-70
2023/02/13 02:44:31;;;;;;;;;;;17.30;61.40;;;;;;5033090;28;1098;-70
2023/02/13 02:49:59;;;;;;;;;;;17.30;61.50;;;;;;5041147;28;1240;-70
2023/02/13 02:52:50;;;;;;;;;;;17.30;61.50;;;;;;5068974;28;1906;-70
2023/02/13 02:55:21;;;;;;;;;;;17.30;61.50;;;;;;5023838;28;1132;-71
2023/02/13 03:06:13;;;;;;;;;;;17.30;61.50;;;;;;5069951;28;903;-70
2023/02/13 03:14:08;;;;;;;;;;;17.30;61.50;;;;;;5041477;28;756;-71
2023/02/13 03:22:35;;;;;;;;;;;17.30;61.60;;;;;;5066440;28;853;-72
2023/02/13 03:25:00;;;;;;;;;;;17.30;61.60;;;;;;5040443;28;1065;-70
2023/02/13 03:30:51;;;;;;;;;;;17.30;61.60;;;;;;5068698;28;1386;-71
2023/02/13 03:33:16;;;;;;;;;;;17.30;61.60;;;;;;5023067;28;1262;-71
2023/02/13 03:38:41;;;;;;;;;;;17.30;61.60;;;;;;5041054;28;747;-71
2023/02/13 03:41:17;;;;;;;;;;;17.30;61.60;;;;;;5041454;28;1256;-71
2023/02/13 03:43:55;;;;;;;;;;;17.20;61.50;;;;;;5073304;28;844;-70
2023/02/13 03:46:20;;;;;;;;;;;17.30;61.60;;;;;;5040265;28;788;-71
2023/02/13 03:51:30;;;;;;;;;;;17.20;61.60;;;;;;5070045;28;1918;-70
2023/02/13 03:53:56;;;;;;;;;;;17.30;61.60;;;;;;5040073;28;1256;-70
2023/02/13 03:59:17;;;;;;;;;;;17.30;61.60;;;;;;5066357;28;770;-71
2023/02/13 04:01:53;;;;;;;;;;;17.30;61.70;;;;;;5068602;28;843;-70
2023/02/13 04:04:21;;;;;;;;;;;17.30;61.60;;;;;;5041887;28;1253;-71
2023/02/13 04:07:06;;;;;;;;;;;17.30;61.70;;;;;;5072401;28;859;-71
2023/02/13 04:09:32;;;;;;;;;;;17.30;61.70;;;;;;5040304;28;1263;-70
2023/02/13 04:12:01;;;;;;;;;;;17.20;61.70;;;;;;5073938;28;1918;-70
2023/02/13 04:14:27;;;;;;;;;;;17.30;61.70;;;;;;5042306;28;967;-70
2023/02/13 04:16:57;;;;;;;;;;;17.20;61.60;;;;;;5073430;28;800;-70
2023/02/13 04:19:23;;;;;;;;;;;17.30;61.70;;;;;;5072541;28;1284;-72
2023/02/13 04:21:50;;;;;;;;;;;17.20;61.70;;;;;;5072429;28;929;-71
2023/02/13 04:24:15;;;;;;;;;;;17.20;61.70;;;;;;5072575;28;1319;-70
2023/02/13 04:26:41;;;;;;;;;;;17.20;61.60;;;;;;5069926;28;782;-71
2023/02/13 04:29:07;;;;;;;;;;;17.20;61.70;;;;;;5068415;28;961;-71
2023/02/13 04:31:33;;;;;;;;;;;17.20;61.70;;;;;;5036905;28;1906;-70
2023/02/13 04:33:58;;;;;;;;;;;17.20;61.70;;;;;;5041896;28;1026;-70
2023/02/13 04:36:23;;;;;;;;;;;17.20;61.70;;;;;;5041053;28;1354;-71
2023/02/13 04:38:49;;;;;;;;;;;17.20;61.70;;;;;;5072268;28;1067;-71
2023/02/13 04:41:15;;;;;;;;;;;17.20;61.70;;;;;;5069148;28;1295;-72
2023/02/13 04:43:40;;;;;;;;;;;17.20;61.70;;;;;;5040599;28;851;-72
2023/02/13 04:46:06;;;;;;;;;;;17.20;61.70;;;;;;5039167;28;915;-71
2023/02/13 04:48:31;;;;;;;;;;;17.20;61.70;;;;;;5039439;28;815;-71
2023/02/13 04:50:56;;;;;;;;;;;17.20;61.70;;;;;;5036360;28;1910;-71
2023/02/13 04:53:22;;;;;;;;;;;17.20;61.70;;;;;;5039469;28;1267;-71
2023/02/13 04:55:47;;;;;;;;;;;17.20;61.70;;;;;;5041263;28;998;-72
2023/02/13 04:58:13;;;;;;;;;;;17.20;61.70;;;;;;5038363;28;887;-71
2023/02/13 05:00:38;;;;;;;;;;;17.20;61.70;;;;;;5039509;28;1241;-71
2023/02/13 05:03:05;;;;;;;;;;;17.20;61.70;;;;;;5039078;28;868;-70
2023/02/13 05:05:30;;;;;;;;;;;17.20;61.70;;;;;;5038753;28;1322;-71
2023/02/13 05:07:55;;;;;;;;;;;17.20;61.70;;;;;;5043026;28;1156;-72
2023/02/13 05:10:21;;;;;;;;;;;17.20;61.70;;;;;;5041198;28;1291;-71
2023/02/13 05:12:47;;;;;;;;;;;17.20;61.70;;;;;;5040183;28;1961;-69
2023/02/13 05:15:12;;;;;;;;;;;17.20;61.60;;;;;;5067031;28;838;-71
2023/02/13 05:17:37;;;;;;;;;;;17.30;61.50;;;;;;5037009;28;868;-72
2023/02/13 05:20:03;;;;;;;;;;;17.30;61.40;;;;;;5040506;28;1285;-71
2023/02/13 05:25:13;;;;;;;;;;;17.40;61.10;;;;;;5038502;28;833;-71
2023/02/13 05:27:38;;;;;;;;;;;17.40;61.00;;;;;;5034226;28;991;-70
2023/02/13 05:30:04;;;;;;;;;;;17.50;60.90;;;;;;5038421;28;1292;-71
2023/02/13 05:32:30;;;;;;;;;;;17.50;60.80;;;;;;5041373;28;1993;-70
2023/02/13 05:34:55;;;;;;;;;;;17.50;60.60;;;;;;5040568;28;1286;-71
2023/02/13 05:37:20;;;;;;;;;;;17.60;60.60;;;;;;5037447;28;892;-71
2023/02/13 05:39:46;;;;;;;;;;;17.60;60.40;;;;;;5037219;28;1291;-71
2023/02/13 05:42:11;;;;;;;;;;;17.60;61.10;;;;;;5039104;28;1177;-71
2023/02/13 05:44:37;;;;;;;;;;;17.60;60.20;;;;;;5039035;28;1006;-71
2023/02/13 05:47:02;;;;;;;;;;;17.70;60.20;;;;;;5037611;28;855;-71
2023/02/13 05:49:28;;;;;;;;;;;17.70;60.10;;;;;;5062595;28;1420;-70
2023/02/13 05:51:53;;;;;;;;;;;17.70;60.10;;;;;;5038950;28;1964;-71
2023/02/13 05:54:19;;;;;;;;;;;17.70;60.00;;;;;;5035998;28;1351;-71
2023/02/13 05:56:44;;;;;;;;;;;17.70;60.00;;;;;;5036578;28;948;-70
2023/02/13 05:59:10;;;;;;;;;;;17.80;59.90;;;;;;5035212;28;911;-71
2023/02/13 06:01:35;;;;;;;;;;;17.80;59.80;;;;;;5072027;28;1283;-71
2023/02/13 06:04:01;;;;;;;;;;;17.90;59.70;;;;;;5039466;28;1290;-70
2023/02/13 06:06:26;;;;;;;;;;;18.00;59.50;;;;;;5038560;28;853;-70
2023/02/13 06:08:52;;;;;;;;;;;18.10;59.50;;;;;;5070081;28;888;-71
2023/02/13 06:11:18;;;;;;;;;;;18.20;59.90;;;;;;5068679;28;1967;-72
2023/02/13 06:13:44;;;;;;;;;;;18.30;59.10;;;;;;5062151;28;1383;-71
2023/02/13 06:16:09;;;;;;;;;;;18.50;58.90;;;;;;5037765;28;1212;-70
2023/02/13 06:18:35;;;;;;;;;;;18.60;59.30;;;;;;5066880;28;886;-69
2023/02/13 06:21:00;;;;;;;;;;;18.70;58.40;;;;;;5074243;28;1302;-71
2023/02/13 06:23:26;;;;;;;;;;;18.90;58.20;;;;;;5075239;28;825;-71
2023/02/13 06:25:52;;;;;;;;;;;19.00;57.90;;;;;;5040349;28;913;-70
2023/02/13 06:28:17;;;;;;;;;;;19.10;57.60;;;;;;5041995;28;855;-71
2023/02/13 06:30:42;;;;;;;;;;;19.20;57.40;;;;;;5074524;28;1898;-71
2023/02/13 06:33:08;;;;;;;;;;;19.30;57.20;;;;;;5074231;28;962;-71
2023/02/13 06:35:33;;;;;;;;;;;19.40;57.00;;;;;;5042948;28;1282;-71
2023/02/13 06:37:59;;;;;;;;;;;19.50;56.90;;;;;;5044123;28;938;-71
2023/02/13 06:40:24;;;;;;;;;;;19.60;56.70;;;;;;5042906;28;1352;-71
2023/02/13 06:42:50;;;;;;;;;;;19.60;56.50;;;;;;5039596;28;824;-70
2023/02/13 06:45:15;;;;;;;;;;;19.70;56.40;;;;;;5041194;28;879;-71
2023/02/13 06:47:41;;;;;;;;;;;19.80;56.30;;;;;;5042734;28;864;-72
2023/02/13 06:50:07;;;;;;;;;;;19.80;56.10;;;;;;5070570;28;1261;-71
2023/02/13 06:52:33;;;;;;;;;;;19.80;56.00;;;;;;5071401;28;1910;-71
2023/02/13 06:54:59;;;;;;;;;;;19.90;55.90;;;;;;5042122;28;846;-71
2023/02/13 06:57:25;;;;;;;;;;;19.90;55.80;;;;;;5044827;28;1262;-71
2023/02/13 06:59:51;;;;;;;;;;;19.90;55.70;;;;;;5040722;28;1272;-71
2023/02/13 07:02:16;;;;;;;;;;;20.00;55.70;;;;;;5042064;28;848;-71
2023/02/13 07:04:42;;;;;;;;;;;20.00;55.70;;;;;;5077285;28;1393;-71
2023/02/13 07:07:07;;;;;;;;;;;20.00;55.60;;;;;;5041723;28;805;-70
2023/02/13 07:09:33;;;;;;;;;;;20.10;55.60;;;;;;5041560;28;1454;-72
2023/02/13 07:12:01;;;;;;;;;;;20.10;55.60;;;;;;5041540;28;1922;-71
2023/02/13 07:14:26;;;;;;;;;;;20.10;55.60;;;;;;5075531;28;1014;-71
2023/02/13 07:16:52;;;;;;;;;;;20.10;55.60;;;;;;5041890;28;1241;-71
2023/02/13 07:19:17;;;;;;;;;;;20.10;55.50;;;;;;5039466;28;958;-71
2023/02/13 07:21:43;;;;;;;;;;;20.10;55.60;;;;;;5042859;28;1312;-70
2023/02/13 07:24:08;;;;;;;;;;;20.10;55.60;;;;;;5039461;28;1829;-69
2023/02/13 07:26:34;;;;;;;;;;;20.10;55.60;;;;;;5042777;28;2068;-70
2023/02/13 07:29:04;;;;;;;;;;;20.10;55.60;;;;;;5042385;28;1432;-70
2023/02/13 07:31:31;;;;;;;;;;;20.10;55.70;;;;;;5042045;28;1906;-70
2023/02/13 07:33:57;;;;;;;;;;;20.10;55.70;;;;;;5041515;28;1026;-70
2023/02/13 07:36:22;;;;;;;;;;;20.10;55.70;;;;;;5041748;28;1287;-70
2023/02/13 07:38:48;;;;;;;;;;;20.10;55.80;;;;;;5041813;28;923;-70
2023/02/13 07:41:13;;;;;;;;;;;20.10;55.90;;;;;;5038683;28;1257;-70
2023/02/13 07:43:39;;;;;;;;;;;20.00;55.90;;;;;;5039529;28;843;-70
2023/02/13 07:46:04;;;;;;;;;;;20.00;56.00;;;;;;5040416;28;1155;-70
2023/02/13 07:48:30;;;;;;;;;;;20.00;56.10;;;;;;5040432;28;773;-72
2023/02/13 07:50:59;;;;;;;;;;;20.00;56.20;;;;;;5040502;28;1911;-69
2023/02/13 07:53:24;;;;;;;;;;;19.90;56.30;;;;;;5071713;28;1250;-68
2023/02/13 07:55:49;;;;;;;;;;;19.90;56.30;;;;;;5038682;28;1070;-69
2023/02/13 07:58:15;;;;;;;;;;;19.90;56.40;;;;;;5040136;28;1512;-69
2023/02/13 08:00:40;;;;;;;;;;;19.80;56.40;;;;;;5046081;28;1272;-69
2023/02/13 08:03:06;;;;;;;;;;;19.90;56.50;;;;;;5040331;28;864;-68
2023/02/13 08:05:31;;;;;;;;;;;19.90;56.50;;;;;;5040424;28;1329;-69
2023/02/13 08:07:57;;;;;;;;;;;19.80;56.70;;;;;;5072052;28;1421;-68
2023/02/13 08:13:06;;;;;;;;;;;19.80;57.30;;;;;;5067833;28;1370;-69
2023/02/13 08:15:32;;;;;;;;;;;19.70;57.70;;;;;;5072610;28;1347;-69
2023/02/13 08:17:57;;;;;;;;;;;19.70;57.70;;;;;;5043526;28;1350;-68
2023/02/13 08:20:23;;;;;;;;;;;19.70;57.80;;;;;;5041371;28;1602;-69
2023/02/13 08:22:48;;;;;;;;;;;19.70;58.00;;;;;;5042108;28;1553;-69
2023/02/13 08:25:14;;;;;;;;;;;19.70;58.30;;;;;;5038078;28;1365;-69
2023/02/13 08:27:39;;;;;;;;;;;19.70;58.80;;;;;;5038257;28;1161;-69
2023/02/13 08:30:05;;;;;;;;;;;19.70;58.50;;;;;;5042088;28;1291;-69
2023/02/13 08:32:30;;;;;;;;;;;19.70;58.50;;;;;;5073527;28;1967;-69
2023/02/13 08:34:56;;;;;;;;;;;19.60;58.50;;;;;;5038363;28;1393;-68
2023/02/13 08:37:21;;;;;;;;;;;19.60;58.90;;;;;;5069653;28;823;-69
2023/02/13 08:39:47;;;;;;;;;;;19.60;58.90;;;;;;5040712;28;1379;-69
2023/02/13 08:42:12;;;;;;;;;;;19.60;59.00;;;;;;5038298;28;896;-69
2023/02/13 08:44:40;;;;;;;;;;;19.50;58.90;;;;;;5040863;28;807;-69
2023/02/13 08:47:05;;;;;;;;;;;19.50;59.00;;;;;;5041336;28;837;-70
2023/02/13 08:49:31;;;;;;;;;;;19.50;59.20;;;;;;5039471;28;1647;-69
2023/02/13 08:51:57;;;;;;;;;;;19.50;59.20;;;;;;5072952;28;1901;-69
2023/02/13 08:54:22;;;;;;;;;;;19.50;59.30;;;;;;5038242;28;1238;-69
2023/02/13 08:56:48;;;;;;;;;;;19.50;59.50;;;;;;5073266;28;962;-69
2023/02/13 08:59:13;;;;;;;;;;;19.50;59.60;;;;;;5041214;28;1061;-69
2023/02/13 09:01:39;;;;;;;;;;;19.40;59.80;;;;;;5042073;28;1281;-69
2023/02/13 09:04:04;;;;;;;;;;;19.40;59.90;;;;;;5071769;28;1300;-68
2023/02/13 09:06:29;;;;;;;;;;;19.40;60.40;;;;;;5039426;28;919;-68
2023/02/13 09:08:55;;;;;;;;;;;19.40;60.30;;;;;;5072888;28;1740;-68
2023/02/13 09:11:22;;;;;;;;;;;19.50;60.30;;;;;;5039597;28;1989;-69
2023/02/13 09:13:48;;;;;;;;;;;19.40;60.20;;;;;;5039537;28;842;-69
2023/02/13 09:16:13;;;;;;;;;;;19.50;60.30;;;;;;5039061;28;836;-69
2023/02/13 09:18:39;;;;;;;;;;;19.50;60.30;;;;;;5038774;28;1070;-69
2023/02/13 09:21:07;;;;;;;;;;;19.40;60.20;;;;;;5038043;28;1242;-68
2023/02/13 09:23:34;;;;;;;;;;;19.50;60.30;;;;;;5038527;28;948;-68
2023/02/13 09:26:03;;;;;;;;;;;19.40;60.20;;;;;;5074440;28;1014;-68
2023/02/13 09:28:29;;;;;;;;;;;19.50;60.40;;;;;;5070444;28;1694;-68
2023/02/13 09:30:54;;;;;;;;;;;19.50;60.50;;;;;;5075785;28;1938;-68
2023/02/13 09:33:20;;;;;;;;;;;19.50;60.30;;;;;;5036938;28;1059;-68
2023/02/13 09:35:45;;;;;;;;;;;19.50;60.20;;;;;;5041590;28;1380;-68
2023/02/13 09:38:11;;;;;;;;;;;19.50;60.10;;;;;;5039395;28;850;-68
2023/02/13 09:40:39;;;;;;;;;;;19.50;60.00;;;;;;5041342;28;1237;-67
2023/02/13 09:43:25;;;;;;;;;;;19.60;60.10;;;;;;5074035;28;840;-68
2023/02/13 09:45:50;;;;;;;;;;;19.50;60.20;;;;;;5039324;28;1210;-69
2023/02/13 09:48:34;;;;;;;;;;;19.50;60.30;;;;;;5038936;28;903;-69
2023/02/13 09:51:00;;;;;;;;;;;19.50;60.00;;;;;;5069171;28;1972;-69
2023/02/13 09:53:27;;;;;;;;;;;19.50;60.30;;;;;;5040797;28;1346;-68
2023/02/13 09:56:11;;;;;;;;;;;19.50;60.30;;;;;;5069717;28;891;-68
2023/02/13 09:58:44;;;;;;;;;;;19.50;60.40;;;;;;5034824;28;921;-68
2023/02/13 10:01:19;;;;;;;;;;;19.50;60.40;;;;;;5035637;28;1319;-69
2023/02/13 10:03:47;;;;;;;;;;;19.50;60.40;;;;;;5039616;28;1324;-69
2023/02/13 10:06:18;;;;;;;;;;;19.50;60.40;;;;;;5070728;28;919;-70
2023/02/13 10:08:48;;;;;;;;;;;19.50;60.40;;;;;;5070524;28;927;-70
2023/02/13 10:11:24;;;;;;;;;;;19.50;60.60;;;;;;5066649;28;1910;-70
2023/02/13 10:13:59;;;;;;;;;;;19.50;60.70;;;;;;5068234;28;841;-70
2023/02/13 10:16:26;;;;;;;;;;;19.40;60.80;;;;;;5036313;28;816;-71
2023/02/13 10:18:57;;;;;;;;;;;19.50;60.90;;;;;;5066730;28;970;-72
2023/02/13 10:21:27;;;;;;;;;;;19.40;61.60;;;;;;5035582;28;1311;-71
2023/02/13 10:24:04;;;;;;;;;;;19.40;61.00;;;;;;5073673;28;969;-70
2023/02/13 10:26:41;;;;;;;;;;;19.40;61.00;;;;;;5072568;28;890;-71
2023/02/13 10:31:59;;;;;;;;;;;19.40;61.10;;;;;;5070627;28;1906;-71
2023/02/13 10:34:25;;;;;;;;;;;19.50;61.20;;;;;;5071411;28;1375;-70
2023/02/13 10:36:50;;;;;;;;;;;19.40;61.20;;;;;;5040293;28;821;-71
2023/02/13 10:39:20;;;;;;;;;;;19.40;61.20;;;;;;5040938;28;822;-71
2023/02/13 10:41:58;;;;;;;;;;;19.40;61.20;;;;;;5057539;28;1378;-70
2023/02/13 10:44:29;;;;;;;;;;;19.40;62.00;;;;;;5033928;28;939;-69
2023/02/13 10:47:10;;;;;;;;;;;19.40;61.20;;;;;;5035075;28;966;-70
2023/02/13 10:49:41;;;;;;;;;;;19.40;61.30;;;;;;5036690;28;1260;-71
2023/02/13 10:52:16;;;;;;;;;;;19.40;61.50;;;;;;5040220;28;1902;-71
2023/02/13 10:54:59;;;;;;;;;;;19.30;61.50;;;;;;5038344;28;886;-69
2023/02/13 10:57:43;;;;;;;;;;;19.30;61.80;;;;;;5036847;28;876;-70
2023/02/13 11:00:30;;;;;;;;;;;19.30;61.90;;;;;;5036292;28;1236;-71
2023/02/13 11:02:56;;;;;;;;;;;19.30;62.20;;;;;;5035203;28;816;-71
2023/02/13 11:05:22;;;;;;;;;;;19.30;62.30;;;;;;5069376;28;1257;-70
2023/02/13 11:07:48;;;;;;;;;;;19.30;62.80;;;;;;5071942;28;906;-71
2023/02/13 11:10:17;;;;;;;;;;;19.30;62.90;;;;;;5039897;28;1241;-71
2023/02/13 11:12:43;;;;;;;;;;;19.30;63.00;;;;;;5074340;28;1969;-71
2023/02/13 11:15:18;;;;;;;;;;;19.20;62.90;;;;;;5074639;28;824;-71
2023/02/13 11:17:45;;;;;;;;;;;19.30;63.10;;;;;;5071365;28;1014;-69
2023/02/13 11:20:29;;;;;;;;;;;19.30;63.20;;;;;;5055434;28;1345;-71
2023/02/13 11:22:55;;;;;;;;;;;19.30;63.20;;;;;;5042188;28;863;-71
2023/02/13 11:25:21;;;;;;;;;;;19.30;63.10;;;;;;5042239;28;1078;-71
2023/02/13 11:27:48;;;;;;;;;;;19.30;63.00;;;;;;5073369;28;1072;-72
2023/02/13 11:30:22;;;;;;;;;;;19.30;63.00;;;;;;5075458;28;1344;-71
2023/02/13 11:32:58;;;;;;;;;;;19.30;62.90;;;;;;5042212;28;1965;-71
2023/02/13 11:35:28;;;;;;;;;;;19.30;62.80;;;;;;5041509;28;1325;-71
2023/02/13 11:38:13;;;;;;;;;;;19.30;63.30;;;;;;5040415;28;916;-71
2023/02/13 11:40:40;;;;;;;;;;;19.30;62.30;;;;;;5040594;28;1369;-71
2023/02/13 11:43:06;;;;;;;;;;;19.30;62.20;;;;;;5072612;28;2091;-71
2023/02/13 11:45:31;;;;;;;;;;;19.40;62.30;;;;;;5072780;28;1393;-71
2023/02/13 11:47:56;;;;;;;;;;;19.40;62.20;;;;;;5071732;28;1405;-70
2023/02/13 11:50:25;;;;;;;;;;;19.40;62.20;;;;;;5074912;28;1292;-70
2023/02/13 11:52:57;;;;;;;;;;;19.40;62.30;;;;;;5042254;28;1949;-71
2023/02/13 11:55:29;;;;;;;;;;;19.40;62.30;;;;;;5042531;28;817;-71
2023/02/13 11:57:55;;;;;;;;;;;19.30;62.20;;;;;;5045012;28;884;-70
2023/02/13 12:00:25;;;;;;;;;;;19.40;62.20;;;;;;5073937;28;1320;-71
2023/02/13 12:02:51;;;;;;;;;;;19.40;62.20;;;;;;5070535;28;952;-71
2023/02/13 12:05:17;;;;;;;;;;;19.40;62.20;;;;;;5071045;28;1237;-71
2023/02/13 12:07:43;;;;;;;;;;;19.30;62.20;;;;;;5037549;28;922;-71
2023/02/13 12:10:17;;;;;;;;;;;19.30;62.30;;;;;;5040135;28;1353;-71
2023/02/13 12:12:43;;;;;;;;;;;19.30;62.50;;;;;;5040896;28;1914;-71
2023/02/13 12:15:24;;;;;;;;;;;19.30;62.70;;;;;;5044960;28;943;-70
2023/02/13 12:18:10;;;;;;;;;;;19.20;62.60;;;;;;5077826;28;984;-70
2023/02/13 12:20:40;;;;;;;;;;;19.20;62.80;;;;;;5038429;28;1345;-71
2023/02/13 12:23:08;;;;;;;;;;;19.30;62.90;;;;;;5074973;28;883;-71
2023/02/13 12:25:34;;;;;;;;;;;19.20;62.80;;;;;;5039899;28;910;-70
2023/02/13 12:27:59;;;;;;;;;;;19.20;62.90;;;;;;5042876;28;1212;-71
2023/02/13 12:30:35;;;;;;;;;;;19.20;62.90;;;;;;5041863;28;1256;-71
2023/02/13 12:33:01;;;;;;;;;;;19.20;63.00;;;;;;5072518;28;1898;-70
2023/02/13 12:35:30;;;;;;;;;;;19.20;63.10;;;;;;5040825;28;1536;-71
2023/02/13 12:38:10;;;;;;;;;;;19.10;63.10;;;;;;5041979;28;1206;-70
2023/02/13 12:40:39;;;;;;;;;;;19.10;63.20;;;;;;5039474;28;2113;-70
2023/02/13 12:43:23;;;;;;;;;;;19.10;63.40;;;;;;5040622;28;1937;-70
2023/02/13 12:46:00;;;;;;;;;;;19.10;63.50;;;;;;5041512;28;1632;-70
2023/02/13 12:48:34;;;;;;;;;;;19.10;63.70;;;;;;5041642;28;1435;-70
2023/02/13 12:51:00;;;;;;;;;;;19.10;64.10;;;;;;5074189;28;1956;-72
2023/02/13 12:53:40;;;;;;;;;;;19.10;64.50;;;;;;5041134;28;1253;-72
2023/02/13 12:56:35;;;;;;;;;;;19.10;64.20;;;;;;5038550;28;805;-69
2023/02/13 12:59:06;;;;;;;;;;;19.10;64.20;;;;;;5031873;28;1190;-70
2023/02/13 13:01:37;;;;;;;;;;;19.10;64.10;;;;;;5073567;28;1259;-70
2023/02/13 13:04:21;;;;;;;;;;;19.10;64.10;;;;;;5039060;28;1268;-71
2023/02/13 13:06:47;;;;;;;;;;;19.10;62.00;;;;;;5042448;28;914;-70
2023/02/13 13:09:15;;;;;;;;;;;19.00;59.20;;;;;;5070927;28;1250;-70
2023/02/13 13:11:47;;;;;;;;;;;19.00;57.80;;;;;;5040413;28;1969;-71
2023/02/13 13:14:25;;;;;;;;;;;18.90;56.60;;;;;;5038224;28;1089;-71
2023/02/13 13:16:51;;;;;;;;;;;18.80;55.80;;;;;;5042614;28;934;-71
2023/02/13 13:19:22;;;;;;;;;;;18.80;56.00;;;;;;5040038;28;1049;-71
2023/02/13 13:21:52;;;;;;;;;;;18.70;56.50;;;;;;5038361;28;834;-70
2023/02/13 13:24:36;;;;;;;;;;;18.70;56.90;;;;;;5066894;28;796;-72
2023/02/13 13:27:02;;;;;;;;;;;18.60;57.20;;;;;;5036197;28;1069;-71
2023/02/13 13:29:43;;;;;;;;;;;18.60;57.50;;;;;;5034778;28;1277;-71
2023/02/13 13:32:10;;;;;;;;;;;18.60;57.80;;;;;;5069638;28;1906;-71
2023/02/13 13:34:36;;;;;;;;;;;18.60;58.10;;;;;;5038852;28;1282;-71
2023/02/13 13:37:03;;;;;;;;;;;18.60;58.30;;;;;;5039696;28;1791;-71
2023/02/13 13:39:35;;;;;;;;;;;18.60;58.60;;;;;;5038067;28;1392;-71
2023/02/13 13:42:08;;;;;;;;;;;18.60;58.70;;;;;;5070598;28;871;-71
2023/02/13 13:44:40;;;;;;;;;;;18.50;58.90;;;;;;5039383;28;812;-71
2023/02/13 13:47:18;;;;;;;;;;;18.50;59.60;;;;;;5071361;28;852;-71
2023/02/13 13:49:53;;;;;;;;;;;18.50;59.20;;;;;;5070117;28;1269;-71
2023/02/13 13:52:19;;;;;;;;;;;18.50;59.30;;;;;;5068910;28;1975;-70
2023/02/13 13:54:50;;;;;;;;;;;18.50;59.40;;;;;;5037087;28;875;-71
2023/02/13 13:57:16;;;;;;;;;;;18.50;59.50;;;;;;5065304;28;840;-71
2023/02/13 13:59:50;;;;;;;;;;;18.50;59.60;;;;;;5071702;28;1253;-70
2023/02/13 14:02:16;;;;;;;;;;;18.50;59.70;;;;;;5039290;28;894;-70
2023/02/13 14:05:00;;;;;;;;;;;18.50;59.70;;;;;;5039822;28;1021;-70
2023/02/13 14:07:26;;;;;;;;;;;18.50;59.80;;;;;;5039073;28;1059;-71
2023/02/13 14:09:52;;;;;;;;;;;18.50;59.80;;;;;;5070783;28;1292;-72
2023/02/13 14:12:24;;;;;;;;;;;18.40;59.80;;;;;;5037741;28;1914;-72
2023/02/13 14:14:51;;;;;;;;;;;18.40;59.90;;;;;;5039318;28;1235;-72
2023/02/13 14:17:36;;;;;;;;;;;18.40;60.00;;;;;;5070655;28;890;-70
2023/02/13 14:20:02;;;;;;;;;;;18.40;60.00;;;;;;5037414;28;1366;-70
2023/02/13 14:22:28;;;;;;;;;;;18.40;60.10;;;;;;5069763;28;840;-73
2023/02/13 14:24:54;;;;;;;;;;;18.40;60.10;;;;;;5038445;28;1129;-72
2023/02/13 14:27:20;;;;;;;;;;;18.40;60.10;;;;;;5039315;28;895;-72
2023/02/13 14:29:46;;;;;;;;;;;18.40;60.20;;;;;;5071521;28;1299;-71
2023/02/13 14:32:14;;;;;;;;;;;18.40;60.20;;;;;;5072268;28;1902;-72
2023/02/13 14:34:39;;;;;;;;;;;18.40;60.20;;;;;;5068600;28;1090;-72
2023/02/13 14:37:19;;;;;;;;;;;18.40;60.30;;;;;;5069940;28;861;-72
2023/02/13 14:40:03;;;;;;;;;;;18.40;60.30;;;;;;5071438;28;1303;-72
2023/02/13 14:42:29;;;;;;;;;;;18.40;60.30;;;;;;5043049;28;891;-71
2023/02/13 14:44:55;;;;;;;;;;;18.40;60.30;;;;;;5074431;28;825;-72
2023/02/13 14:47:27;;;;;;;;;;;18.40;60.30;;;;;;5073784;28;915;-71
2023/02/13 14:49:52;;;;;;;;;;;18.40;60.30;;;;;;5040294;28;1241;-71
2023/02/13 14:52:18;;;;;;;;;;;18.30;60.20;;;;;;5072813;28;1968;-71
2023/02/13 14:54:51;;;;;;;;;;;18.40;60.30;;;;;;5071698;28;1165;-72
2023/02/13 14:57:17;;;;;;;;;;;18.40;60.30;;;;;;5072712;28;1335;-72
2023/02/13 14:59:45;;;;;;;;;;;18.40;60.30;;;;;;5057011;28;1274;-71
2023/02/13 15:02:11;;;;;;;;;;;18.40;60.30;;;;;;5045640;28;895;-72
2023/02/13 15:04:40;;;;;;;;;;;18.40;60.30;;;;;;5073946;28;1378;-71
2023/02/13 15:07:11;;;;;;;;;;;18.40;60.20;;;;;;5075128;28;910;-72
2023/02/13 15:09:39;;;;;;;;;;;18.40;60.30;;;;;;5073278;28;1287;-73
2023/02/13 15:12:23;;;;;;;;;;;18.40;60.20;;;;;;5072962;28;1906;-71
2023/02/13 15:14:49;;;;;;;;;;;18.40;60.20;;;;;;5042654;28;986;-71
2023/02/13 15:17:18;;;;;;;;;;;18.40;60.30;;;;;;5044471;28;866;-71
2023/02/13 15:19:44;;;;;;;;;;;18.40;60.20;;;;;;5075622;28;1260;-72
2023/02/13 15:22:16;;;;;;;;;;;18.40;60.30;;;;;;5069831;28;836;-71
2023/02/13 15:24:44;;;;;;;;;;;18.40;60.30;;;;;;5073701;28;786;-71
2023/02/13 15:27:17;;;;;;;;;;;18.30;60.20;;;;;;5041158;28;907;-71